Home > Products > Valid Products > MTR

000
SAUS45 KABQ 302254
MTRTCS
METAR KTCS 302253Z AUTO 17009KT 10SM CLR 25/M04 A3008 RMK AO2 SLP117
T02501044 TSNO





000
SAUS45 KABQ 302254
MTRCQC
METAR KCQC 302253Z AUTO 28018G28KT 10SM CLR 21/M16 A3018 RMK AO2 PK
WND 26030/2221 SLP156 T02061161





000
SAUS45 KABQ 302253
MTRABQ
METAR KABQ 302252Z 00000KT 10SM FEW120 SCT150 SCT200 25/M11 A3010
RMK AO2 SLP125 VIRGA SW-NW CB DSNT NW T02501106





000
SAUS45 KABQ 302154
MTRCQC
METAR KCQC 302153Z AUTO 25018G26KT 10SM CLR 22/M18 A3020 RMK AO2 PK
WND 27032/2130 SLP151 T02221178





000
SAUS45 KABQ 302154
MTRTCS
METAR KTCS 302153Z AUTO 21015G20KT 10SM FEW120 26/M04 A3011 RMK AO2
SLP125 T02611044 TSNO





000
SAUS45 KABQ 302154
MTRCQC
METAR KCQC 302153Z AUTO 25018G26KT 10SM CLR 22/M18 A3020 RMK AO2 PK
WND 27032/2130 SLP151 T02221178





000
SAUS45 KABQ 302153
MTRABQ
METAR KABQ 302152Z 35009KT 10SM FEW130 SCT200 26/M10 A3012 RMK AO2
SLP130 VIRGA SW AND NW-N T02611100





000
SAUS45 KABQ 302103 COR
MTRCQC
METAR KCQC 302053Z AUTO 26017G31KT 10SM CLR 22/M13 A3022 RMK AO2 PK
WND 27034/2039 SLP159 T02221133 58023





000
SAUS45 KABQ 302103 COR
MTRCQC
METAR KCQC 302053Z AUTO 26017G31KT 10SM CLR 22/M13 A3022 RMK AO2 PK
WND 27034/2039 SLP159 T02221133 58023





000
SAUS45 KABQ 302102 COR
MTRCQC
METAR KCQC 302053Z AUTO 26017G31KT 10SM CLR 22/M13 A3022 RMK AO2 PK
WND 27034/2039 SLP159 T02221133 58023





000
SAUS45 KABQ 302101 COR
MTRCQC
METAR KCQC 302053Z AUTO 26017G31KT 10SM CLR 22/M13 A3022 RMK AO2 PK
WND 27034/2039 SLP159 T02221133 58023





000
SAUS45 KABQ 302059 COR
MTRCQC
METAR KCQC 302053Z AUTO 26017G31KT 10SM CLR 22/M13 A3022 RMK AO2 PK
WND 27034/2039 SLP159 T02221133 58023





000
SAUS45 KABQ 302058 COR
MTRCQC
METAR KCQC 302053Z AUTO 26017G31KT 10SM CLR 22/M13 A3022 RMK AO2 PK
WND 27034/2039 SLP159 T02221133 58023





000
SAUS45 KABQ 302058 COR
MTRCQC
METAR KCQC 302053Z AUTO 26017G31KT 10SM CLR 22/M13 A3022 RMK AO2 PK
WND 27034/2039 SLP159 T02221133 58023





000
SAUS45 KABQ 302056 COR
MTRCQC
METAR KCQC 302053Z AUTO 26017G31KT 10SM CLR 22/M13 A3022 RMK AO2 PK
WND 27034/2039 SLP159 T02221133 58023





000
SAUS45 KABQ 302055
MTRCQC
METAR KCQC 302053Z AUTO 26017G31KT 10SM CLR 22/M13 A3022 RMK AO2 PK
WND 27034/2039 SLP159 T02221133 58023





000
SAUS45 KABQ 302054
MTRTCS
METAR KTCS 302053Z AUTO 27009G18KT 10SM FEW120 26/M05 A3014 RMK AO2
PK WND 24026/2030 SLP131 T02611050 56024 TSNO





000
SAUS45 KABQ 302052
MTRABQ
METAR KABQ 302052Z 18007KT 10SM FEW120 FEW200 24/M09 A3016 RMK AO2
SLP147 T02391089 58031





000
SAUS45 KABQ 302052
MTRABQ
METAR KABQ 302052Z 18007KT 10SM FEW120 FEW200 24/M09 A3016 RMK AO2
SLP147 T02391089 58031





000
SAUS45 KABQ 301958 COR
MTRCQC
METAR KCQC 301953Z AUTO 25022G27KT 10SM BKN100 21/M08 A3025 RMK AO2
PK WND 24030/1919 SLP175 T02111078





000
SAUS45 KABQ 301956 COR
MTRCQC
METAR KCQC 301953Z AUTO 25022G27KT 10SM BKN100 21/M08 A3025 RMK AO2
PK WND 24030/1919 SLP175 T02111078





000
SAUS45 KABQ 301956 COR
MTRCQC
METAR KCQC 301953Z AUTO 25022G27KT 10SM BKN100 21/M08 A3025 RMK AO2
PK WND 24030/1919 SLP175 T02111078





000
SAUS45 KABQ 301955 COR
MTRCQC
METAR KCQC 301953Z AUTO 25022G27KT 10SM BKN100 21/M08 A3025 RMK AO2
PK WND 24030/1919 SLP175 T02111078





000
SAUS45 KABQ 301955 COR
MTRCQC
METAR KCQC 301953Z AUTO 25022G27KT 10SM BKN100 21/M08 A3025 RMK AO2
PK WND 24030/1919 SLP175 T02111078





000
SAUS45 KABQ 301954
MTRTCS
METAR KTCS 301953Z AUTO 16009G15KT 10SM CLR 27/M05 A3016 RMK AO2
SLP134 T02671050 TSNO





000
SAUS45 KABQ 301954
MTRTCS
METAR KTCS 301953Z AUTO 16009G15KT 10SM CLR 27/M05 A3016 RMK AO2
SLP134 T02671050 TSNO





000
SAUS45 KABQ 301954
MTRCQC
METAR KCQC 301953Z AUTO 25022G27KT 10SM BKN100 21/M08 A3025 RMK AO2
PK WND 24030/1919 SLP175 T02111078





000
SAUS45 KABQ 301954
MTRCQC
METAR KCQC 301953Z AUTO 25022G27KT 10SM BKN100 21/M08 A3025 RMK AO2
PK WND 24030/1919 SLP175 T02111078





000
SAUS45 KABQ 301952
MTRABQ
METAR KABQ 301952Z 26007KT 10SM FEW120 FEW180 FEW250 23/M06 A3021
RMK AO2 SLP163 ACSL E AND S-W T02281061





000
SAUS45 KABQ 301858 COR
MTRCQC
METAR KCQC 301853Z AUTO 26014G21KT 10SM CLR 21/M09 A3029 RMK AO2
SLP184 T02061089





000
SAUS45 KABQ 301858 COR
MTRCQC
METAR KCQC 301853Z AUTO 26014G21KT 10SM CLR 21/M09 A3029 RMK AO2
SLP184 T02061089





000
SAUS45 KABQ 301856 COR
MTRCQC
METAR KCQC 301853Z AUTO 26014G21KT 10SM CLR 21/M09 A3029 RMK AO2
SLP184 T02061089





000
SAUS45 KABQ 301856 COR
MTRTCS
METAR KTCS 301853Z AUTO 13007KT 10SM CLR 24/M06 A3019 RMK AO2 SLP153
T02441056 TSNO





000
SAUS45 KABQ 301856 COR
MTRTCS
METAR KTCS 301853Z AUTO 13007KT 10SM CLR 24/M06 A3019 RMK AO2 SLP153
T02441056 TSNO





000
SAUS45 KABQ 301856 COR
MTRCQC
METAR KCQC 301853Z AUTO 26014G21KT 10SM CLR 21/M09 A3029 RMK AO2
SLP184 T02061089





000
SAUS45 KABQ 301855 COR
MTRTCS
METAR KTCS 301853Z AUTO 13007KT 10SM CLR 24/M06 A3019 RMK AO2 SLP153
T02441056 TSNO





000
SAUS45 KABQ 301855 COR
MTRCQC
METAR KCQC 301853Z AUTO 26014G21KT 10SM CLR 21/M09 A3029 RMK AO2
SLP184 T02061089





000
SAUS45 KABQ 301855 COR
MTRCQC
METAR KCQC 301853Z AUTO 26014G21KT 10SM CLR 21/M09 A3029 RMK AO2
SLP184 T02061089





000
SAUS45 KABQ 301855 COR
MTRTCS
METAR KTCS 301853Z AUTO 13007KT 10SM CLR 24/M06 A3019 RMK AO2 SLP153
T02441056 TSNO





000
SAUS45 KABQ 301854
MTRTCS
METAR KTCS 301853Z AUTO 13007KT 10SM CLR 24/M06 A3019 RMK AO2 SLP153
T02441056 TSNO





000
SAUS45 KABQ 301854
MTRCQC
METAR KCQC 301853Z AUTO 26014G21KT 10SM CLR 21/M09 A3029 RMK AO2
SLP184 T02061089





000
SAUS45 KABQ 301854
MTRTCS
METAR KTCS 301853Z AUTO 13007KT 10SM CLR 24/M06 A3019 RMK AO2 SLP153
T02441056 TSNO





000
SAUS45 KABQ 301854
MTRCQC
METAR KCQC 301853Z AUTO 26014G21KT 10SM CLR 21/M09 A3029 RMK AO2
SLP184 T02061089





000
SAUS45 KABQ 301853
MTRABQ
METAR KABQ 301852Z 21004KT 10SM FEW120 FEW200 21/M04 A3024 RMK AO2
SLP177 CCSL SW-W T02111039





000
SAUS45 KABQ 301853
MTRABQ
METAR KABQ 301852Z 21004KT 10SM FEW120 FEW200 21/M04 A3024 RMK AO2
SLP177 CCSL SW-W T02111039





000
SAUS45 KABQ 301754
MTRCQC
METAR KCQC 301753Z AUTO 25010KT 10SM SCT100 18/M06 A3031 RMK AO2
SLP195 T01831056 10189 20044 50002





000
SAUS45 KABQ 301754
MTRTCS
METAR KTCS 301753Z AUTO VRB04KT 10SM CLR 23/M04 A3022 RMK AO2 SLP163
T02331039 10239 20133 50000 TSNO





000
SAUS45 KABQ 301754
MTRTCS
METAR KTCS 301753Z AUTO VRB04KT 10SM CLR 23/M04 A3022 RMK AO2 SLP163
T02331039 10239 20133 50000 TSNO





000
SAUS45 KABQ 301754
MTRCQC
METAR KCQC 301753Z AUTO 25010KT 10SM SCT100 18/M06 A3031 RMK AO2
SLP195 T01831056 10189 20044 50002





000
SAUS45 KABQ 301753
MTRABQ
METAR KABQ 301752Z 21008KT 10SM FEW100 FEW140 FEW230 20/M03 A3027
RMK AO2 SLP187 T02001033 10200 20100 58004





000
SAUS45 KABQ 301753
MTRABQ
METAR KABQ 301752Z 21008KT 10SM FEW100 FEW140 FEW230 20/M03 A3027
RMK AO2 SLP187 T02001033 10200 20100 58004





000
SAUS45 KABQ 301654
MTRTCS
METAR KTCS 301653Z AUTO 00000KT 10SM CLR 21/M05 A3024 RMK AO2 SLP173
T02111050 TSNO





000
SAUS45 KABQ 301654
MTRTCS
METAR KTCS 301653Z AUTO 00000KT 10SM CLR 21/M05 A3024 RMK AO2 SLP173
T02111050 TSNO





000
SAUS45 KABQ 301654
MTRCQC
METAR KCQC 301653Z AUTO 24010KT 220V280 10SM CLR 18/M04 A3032 RMK
AO2 SLP201 T01781044





000
SAUS45 KABQ 301654
MTRCQC
METAR KCQC 301653Z AUTO 24010KT 220V280 10SM CLR 18/M04 A3032 RMK
AO2 SLP201 T01781044





000
SAUS45 KABQ 301652
MTRABQ
METAR KABQ 301652Z 29003KT 10SM FEW230 18/M03 A3029 RMK AO2 SLP196
T01781033





000
SAUS45 KABQ 301652
MTRABQ
METAR KABQ 301652Z 29003KT 10SM FEW230 18/M03 A3029 RMK AO2 SLP196
T01781033





000
SAUS45 KABQ 301554
MTRCQC
METAR KCQC 301553Z AUTO 23010KT 10SM CLR 14/M04 A3032 RMK AO2 SLP206
T01441039





000
SAUS45 KABQ 301553
MTRABQ
METAR KABQ 301552Z 00000KT 10SM FEW130 SCT200 16/M03 A3029 RMK AO2
SLP195 T01561028





000
SAUS45 KABQ 301455
MTRTCS
METAR KTCS 301453Z AUTO 03009KT 10SM BKN110 16/M06 A3022 RMK AO2
SLP168 T01611056 51011 TSNO





000
SAUS45 KABQ 301455
MTRTCS
METAR KTCS 301453Z AUTO 03009KT 10SM BKN110 16/M06 A3022 RMK AO2
SLP168 T01611056 51011 TSNO





000
SAUS45 KABQ 301454
MTRCQC
METAR KCQC 301453Z AUTO 24005KT 10SM CLR 12/M03 A3030 RMK AO2 SLP200
T01221033 51001





000
SAUS45 KABQ 301454
MTRCQC
METAR KCQC 301453Z AUTO 24005KT 10SM CLR 12/M03 A3030 RMK AO2 SLP200
T01221033 51001





000
SAUS45 KABQ 301452
MTRABQ
METAR KABQ 301452Z 13005KT 10SM FEW130 SCT200 13/M04 A3028 RMK AO2
SLP198 T01281044 53010





000
SAUS45 KABQ 301452
MTRABQ
METAR KABQ 301452Z 13005KT 10SM FEW130 SCT200 13/M04 A3028 RMK AO2
SLP198 T01281044 53010





000
SAUS45 KABQ 301357
MTRTCS
METAR KTCS 301353Z AUTO 32010KT 10SM BKN110 16/M07 A3021 RMK AO2
SLP163 T01561067 TSNO





000
SAUS45 KABQ 301357
MTRTCS
METAR KTCS 301353Z AUTO 32010KT 10SM BKN110 16/M07 A3021 RMK AO2
SLP163 T01561067 TSNO





000
SAUS45 KABQ 301354
MTRCQC
METAR KCQC 301353Z AUTO 00000KT 10SM CLR 08/M06 A3030 RMK AO2 SLP202
T00781056





000
SAUS45 KABQ 301352
MTRABQ
METAR KABQ 301352Z 32007KT 10SM SCT140 BKN200 11/M04 A3027 RMK AO2
SLP195 T01061044





000
SAUS45 KABQ 301352
MTRABQ
METAR KABQ 301352Z 32007KT 10SM SCT140 BKN200 11/M04 A3027 RMK AO2
SLP195 T01061044





000
SAUS45 KABQ 301254
MTRCQC
METAR KCQC 301253Z AUTO 10005KT 10SM CLR 06/M06 A3030 RMK AO2 SLP205
T00561061





000
SAUS45 KABQ 301254
MTRTCS
METAR KTCS 301253Z AUTO 01004KT 10SM SCT120 14/M06 A3020 RMK AO2
SLP159 T01391056 TSNO





000
SAUS45 KABQ 301254
MTRCQC
METAR KCQC 301253Z AUTO 10005KT 10SM CLR 06/M06 A3030 RMK AO2 SLP205
T00561061





000
SAUS45 KABQ 301252
MTRABQ
METAR KABQ 301252Z 03006KT 10SM FEW140 SCT240 10/M04 A3024 RMK AO2
SLP184 T01001044





000
SAUS45 KABQ 301252
MTRABQ
METAR KABQ 301252Z 03006KT 10SM FEW140 SCT240 10/M04 A3024 RMK AO2
SLP184 T01001044





000
SAUS45 KABQ 301155
MTRTCS
METAR KTCS 301153Z AUTO 29006KT 10SM FEW110 14/M06 A3018 RMK AO2
SLP149 T01441061 10194 20139 53001 TSNO





000
SAUS45 KABQ 301155
MTRTCS
METAR KTCS 301153Z AUTO 29006KT 10SM FEW110 14/M06 A3018 RMK AO2
SLP149 T01441061 10194 20139 53001 TSNO





000
SAUS45 KABQ 301154
MTRCQC
METAR KCQC 301153Z AUTO 11007KT 10SM CLR 04/M06 A3030 RMK AO2 SLP204
T00441061 10078 20039 55002





000
SAUS45 KABQ 301154
MTRCQC
METAR KCQC 301153Z AUTO 11007KT 10SM CLR 04/M06 A3030 RMK AO2 SLP204
T00441061 10078 20039 55002





000
SAUS45 KABQ 301153
MTRABQ
METAR KABQ 301152Z 30007KT 10SM CLR 11/M04 A3025 RMK AO2 SLP181
T01111044 10161 20111 53007





000
SAUS45 KABQ 301153
MTRABQ
METAR KABQ 301152Z 30007KT 10SM CLR 11/M04 A3025 RMK AO2 SLP181
T01111044 10161 20111 53007





000
SAUS45 KABQ 301055
MTRTCS
METAR KTCS 301053Z AUTO 24004KT 10SM CLR 14/M06 A3017 RMK AO2 SLP141
T01441061 TSNO





000
SAUS45 KABQ 301055
MTRTCS
METAR KTCS 301053Z AUTO 24004KT 10SM CLR 14/M06 A3017 RMK AO2 SLP141
T01441061 TSNO





000
SAUS45 KABQ 301054
MTRCQC
METAR KCQC 301053Z AUTO 09007KT 10SM CLR 04/M07 A3029 RMK AO2 SLP199
T00391067





000
SAUS45 KABQ 301054
MTRCQC
METAR KCQC 301053Z AUTO 09007KT 10SM CLR 04/M07 A3029 RMK AO2 SLP199
T00391067





000
SAUS45 KABQ 301053
MTRABQ
METAR KABQ 301052Z 35003KT 10SM FEW250 12/M04 A3023 RMK AO2 SLP173
T01221039





000
SAUS45 KABQ 301053
MTRABQ
METAR KABQ 301052Z 35003KT 10SM FEW250 12/M04 A3023 RMK AO2 SLP173
T01221039





000
SAUS45 KABQ 300955
MTRTCS
METAR KTCS 300953Z AUTO 31004KT 10SM CLR 15/M06 A3016 RMK AO2 SLP140
T01501061 TSNO





000
SAUS45 KABQ 300954
MTRCQC
METAR KCQC 300953Z AUTO 07010KT 10SM CLR 07/M07 A3029 RMK AO2 SLP193
T00671067





000
SAUS45 KABQ 300953
MTRABQ
METAR KABQ 300952Z 07005KT 10SM SCT150 SCT220 14/M04 A3023 RMK AO2
SLP167 T01391044





000
SAUS45 KABQ 300953
MTRABQ
METAR KABQ 300952Z 07005KT 10SM SCT150 SCT220 14/M04 A3023 RMK AO2
SLP167 T01391044





000
SAUS45 KABQ 300854
MTRTCS
METAR KTCS 300853Z AUTO 25005KT 10SM CLR 16/M07 A3018 RMK AO2 SLP141
T01611067 50001 TSNO





000
SAUS45 KABQ 300854
MTRCQC
METAR KCQC 300853Z AUTO 09008KT 10SM CLR 07/M06 A3031 RMK AO2 SLP191
T00671061 57008





000
SAUS45 KABQ 300852
MTRABQ
METAR KABQ 300852Z 09017KT 10SM SCT150 SCT220 14/M05 A3022 RMK AO2
PK WND 08027/0815 SLP166 T01391050 50003





000
SAUS45 KABQ 300754
MTRCQC
METAR KCQC 300753Z AUTO 09009KT 10SM CLR 06/M06 A3031 RMK AO2 SLP197
T00561061





000
SAUS45 KABQ 300754
MTRCQC
METAR KCQC 300753Z AUTO 09009KT 10SM CLR 06/M06 A3031 RMK AO2 SLP197
T00561061





000
SAUS45 KABQ 300754
MTRTCS
METAR KTCS 300753Z AUTO 29006KT 10SM CLR 17/M07 A3018 RMK AO2 SLP142
T01721072 TSNO





000
SAUS45 KABQ 300752
MTRABQ
METAR KABQ 300752Z 07015KT 10SM SCT150 SCT220 14/M04 A3024 RMK AO2
PK WND 09033/0725 SLP171 T01441044





000
SAUS45 KABQ 300734
MTRABQ
SPECI KABQ 300733Z 09016G33KT 10SM SQ SCT150 SCT220 15/M04 A3023 RMK
AO2 PK WND 09033/0725 T01501044





000
SAUS45 KABQ 300734
MTRABQ
SPECI KABQ 300733Z 09016G33KT 10SM SQ SCT150 SCT220 15/M04 A3023 RMK
AO2 PK WND 09033/0725 T01501044





000
SAUS45 KABQ 300654
MTRCQC
METAR KCQC 300653Z AUTO 09010KT 10SM CLR 07/M06 A3033 RMK AO2 SLP199
T00671056 402220039





000
SAUS45 KABQ 300654
MTRTCS
METAR KTCS 300653Z AUTO 28003KT 10SM CLR 17/M07 A3018 RMK AO2 SLP144
T01671072 402890128 TSNO





000
SAUS45 KABQ 300654
MTRCQC
METAR KCQC 300653Z AUTO 09010KT 10SM CLR 07/M06 A3033 RMK AO2 SLP199
T00671056 402220039





000
SAUS45 KABQ 300654
MTRTCS
METAR KTCS 300653Z AUTO 28003KT 10SM CLR 17/M07 A3018 RMK AO2 SLP144
T01671072 402890128 TSNO





000
SAUS45 KABQ 300653
MTRABQ
METAR KABQ 300652Z 09022G32KT 10SM SCT150 SCT220 16/M04 A3021 RMK
AO2 PK WND 08032/0632 SLP163 T01561044 402670078





000
SAUS45 KABQ 300653
MTRABQ
METAR KABQ 300652Z 09022G32KT 10SM SCT150 SCT220 16/M04 A3021 RMK
AO2 PK WND 08032/0632 SLP163 T01561044 402670078





000
SAUS45 KABQ 300555
MTRTCS
METAR KTCS 300553Z AUTO VRB04KT 10SM CLR 17/M08 A3017 RMK AO2 SLP144
T01671078 10267 20161 51007 TSNO





000
SAUS45 KABQ 300555
MTRTCS
METAR KTCS 300553Z AUTO VRB04KT 10SM CLR 17/M08 A3017 RMK AO2 SLP144
T01671078 10267 20161 51007 TSNO





000
SAUS45 KABQ 300554
MTRCQC
METAR KCQC 300553Z AUTO 09011KT 10SM CLR 08/M05 A3034 RMK AO2 SLP202
T00781050 10167 20078 50004





000
SAUS45 KABQ 300554
MTRCQC
METAR KCQC 300553Z AUTO 09011KT 10SM CLR 08/M05 A3034 RMK AO2 SLP202
T00781050 10167 20078 50004





000
SAUS45 KABQ 300553
MTRABQ
METAR KABQ 300552Z 09019G27KT 10SM SCT150 SCT220 16/M03 A3021 RMK
AO2 PK WND 09034/0507 SLP167 T01611033 10250 20161 51018





000
SAUS45 KABQ 300553
MTRABQ
METAR KABQ 300552Z 09019G27KT 10SM SCT150 SCT220 16/M03 A3021 RMK
AO2 PK WND 09034/0507 SLP167 T01611033 10250 20161 51018





000
SAUS45 KABQ 300454
MTRTCS
METAR KTCS 300453Z AUTO 26005KT 10SM CLR 17/M08 A3017 RMK AO2 SLP144
T01721083 TSNO





000
SAUS45 KABQ 300454
MTRCQC
METAR KCQC 300453Z AUTO 09011KT 10SM CLR 08/M04 A3034 RMK AO2 SLP205
T00781044





000
SAUS45 KABQ 300454
MTRCQC
METAR KCQC 300453Z AUTO 09011KT 10SM CLR 08/M04 A3034 RMK AO2 SLP205
T00781044





000
SAUS45 KABQ 300454
MTRTCS
METAR KTCS 300453Z AUTO 26005KT 10SM CLR 17/M08 A3017 RMK AO2 SLP144
T01721083 TSNO





000
SAUS45 KABQ 300452
MTRABQ
METAR KABQ 300452Z 10022G32KT 10SM FEW080 BKN140 18/M02 A3019 RMK
AO2 PK WND 11039/0412 SLP160 T01781017





000
SAUS45 KABQ 300354
MTRCQC
METAR KCQC 300353Z AUTO 10012KT 10SM CLR 09/M04 A3033 RMK AO2 SLP207
T00891039





000
SAUS45 KABQ 300354
MTRTCS
METAR KTCS 300353Z AUTO 26005KT 10SM CLR 18/M08 A3016 RMK AO2 SLP145
T01781083 TSNO





000
SAUS45 KABQ 300354
MTRTCS
METAR KTCS 300353Z AUTO 26005KT 10SM CLR 18/M08 A3016 RMK AO2 SLP145
T01781083 TSNO





000
SAUS45 KABQ 300352
MTRABQ
METAR KABQ 300352Z 09023G33KT 10SM SCT100 BKN160 19/M03 A3019 RMK
AO2 PK WND 08033/0350 SLP159 T01941028





000
SAUS45 KABQ 300352
MTRABQ
METAR KABQ 300352Z 09023G33KT 10SM SCT100 BKN160 19/M03 A3019 RMK
AO2 PK WND 08033/0350 SLP159 T01941028





000
SAUS45 KABQ 300254
MTRCQC
METAR KCQC 300253Z AUTO 10013G21KT 10SM CLR 11/M02 A3032 RMK AO2
SLP202 T01111022 53018





000
SAUS45 KABQ 300254
MTRTCS
METAR KTCS 300253Z AUTO 22005KT 10SM CLR 21/M09 A3015 RMK AO2 SLP142
T02061094 53014 TSNO





000
SAUS45 KABQ 300254
MTRCQC
METAR KCQC 300253Z AUTO 10013G21KT 10SM CLR 11/M02 A3032 RMK AO2
SLP202 T01111022 53018





000
SAUS45 KABQ 300254
MTRTCS
METAR KTCS 300253Z AUTO 22005KT 10SM CLR 21/M09 A3015 RMK AO2 SLP142
T02061094 53014 TSNO





000
SAUS45 KABQ 300252
MTRABQ
METAR KABQ 300252Z 12018KT 10SM FEW090 BKN210 21/M05 A3015 RMK AO2
PK WND 12026/0203 SLP150 T02061050 53007





000
SAUS45 KABQ 300154
MTRTCS
METAR KTCS 300153Z AUTO 25010KT 10SM CLR 23/M11 A3013 RMK AO2 SLP136
T02331106 TSNO





000
SAUS45 KABQ 300154
MTRCQC
METAR KCQC 300153Z AUTO 11010KT 10SM CLR 14/M03 A3030 RMK AO2 SLP201
T01391028





000
SAUS45 KABQ 300153
MTRABQ
METAR KABQ 300152Z 11017G20KT 10SM SCT090 BKN210 21/M07 A3014 RMK
AO2 SLP148 VIRGA SE AND NW T02111072





000
SAUS45 KABQ 300055
MTRTCS
METAR KTCS 300053Z AUTO 26009KT 10SM CLR 25/M11 A3011 RMK AO2 SLP126
T02501111 TSNO





000
SAUS45 KABQ 300055
MTRTCS
METAR KTCS 300053Z AUTO 26009KT 10SM CLR 25/M11 A3011 RMK AO2 SLP126
T02501111 TSNO





000
SAUS45 KABQ 300054
MTRCQC
METAR KCQC 300053Z AUTO 13013KT 10SM FEW100 16/M03 A3027 RMK AO2
SLP198 T01561033





000
SAUS45 KABQ 300054
MTRCQC
METAR KCQC 300053Z AUTO 13013KT 10SM FEW100 16/M03 A3027 RMK AO2
SLP198 T01561033





000
SAUS45 KABQ 300053
MTRABQ
METAR KABQ 300052Z 12009KT 10SM FEW090 BKN200 23/M09 A3013 RMK AO2
SLP144 VIRGA T02331094





000
SAUS45 KABQ 300053
MTRABQ
METAR KABQ 300052Z 12009KT 10SM FEW090 BKN200 23/M09 A3013 RMK AO2
SLP144 VIRGA T02331094





000
SAUS45 KABQ 292355
MTRTCS
METAR KTCS 292353Z AUTO 27010G19KT 10SM CLR 27/M12 A3010 RMK AO2
SLP123 T02671117 10289 20256 56008 TSNO





000
SAUS45 KABQ 292355
MTRTCS
METAR KTCS 292353Z AUTO 27010G19KT 10SM CLR 27/M12 A3010 RMK AO2
SLP123 T02671117 10289 20256 56008 TSNO





000
SAUS45 KABQ 292354
MTRCQC
METAR KCQC 292353Z AUTO 13013G21KT 10SM CLR 17/M04 A3026 RMK AO2 PK
WND 12027/2257 SLP190 T01671044 10222 20167 53001





000
SAUS45 KABQ 292354
MTRCQC
METAR KCQC 292353Z AUTO 13013G21KT 10SM CLR 17/M04 A3026 RMK AO2 PK
WND 12027/2257 SLP190 T01671044 10222 20167 53001





000
SAUS45 KABQ 292353
MTRABQ
METAR KABQ 292352Z 12006KT 10SM FEW090 BKN210 24/M09 A3013 RMK AO2
SLP145 VIRGA W-NW T02441089 10267 20206 56014





000
SAUS45 KABQ 292353
MTRABQ
METAR KABQ 292352Z 12006KT 10SM FEW090 BKN210 24/M09 A3013 RMK AO2
SLP145 VIRGA W-NW T02441089 10267 20206 56014





000
SAUS45 KABQ 292254
MTRCQC
METAR KCQC 292253Z AUTO 12017G22KT 10SM CLR 18/M06 A3025 RMK AO2
SLP176 T01831056





000
SAUS45 KABQ 292254
MTRTCS
METAR KTCS 292253Z AUTO 10SM CLR 27/M13 A3011 RMK AO2 SLP120
T02721128 TSNO





000
SAUS45 KABQ 292254
MTRTCS
METAR KTCS 292253Z AUTO 10SM CLR 27/M13 A3011 RMK AO2 SLP120
T02721128 TSNO





000
SAUS45 KABQ 292254
MTRCQC
METAR KCQC 292253Z AUTO 12017G22KT 10SM CLR 18/M06 A3025 RMK AO2
SLP176 T01831056





000
SAUS45 KABQ 292253
MTRABQ
METAR KABQ 292252Z VRB04KT 10SM FEW110 BKN230 25/M08 A3013 RMK AO2
SLP142 VIRGA W-NW T02501083





000
SAUS45 KABQ 292253
MTRABQ
METAR KABQ 292252Z VRB04KT 10SM FEW110 BKN230 25/M08 A3013 RMK AO2
SLP142 VIRGA W-NW T02501083





000
SAUS45 KABQ 292154
MTRCQC
METAR KCQC 292153Z AUTO 12016G26KT 10SM CLR 18/M06 A3025 RMK AO2 PK
WND 12026/2149 SLP171 T01831061





000
SAUS45 KABQ 292154
MTRTCS
METAR KTCS 292153Z AUTO 17007KT 10SM CLR 27/M12 A3011 RMK AO2 SLP121
T02721122 TSNO





000
SAUS45 KABQ 292154
MTRCQC
METAR KCQC 292153Z AUTO 12016G26KT 10SM CLR 18/M06 A3025 RMK AO2 PK
WND 12026/2149 SLP171 T01831061





000
SAUS45 KABQ 292154
MTRTCS
METAR KTCS 292153Z AUTO 17007KT 10SM CLR 27/M12 A3011 RMK AO2 SLP121
T02721122 TSNO





000
SAUS45 KABQ 292153
MTRABQ
METAR KABQ 292152Z 00000KT 10SM FEW110 BKN230 25/M08 A3015 RMK AO2
SLP148 T02501078





000
SAUS45 KABQ 292054
MTRCQC
METAR KCQC 292053Z AUTO VRB03KT 10SM CLR 21/M12 A3025 RMK AO2 SLP170
T02111122 58016





000
SAUS45 KABQ 292054
MTRTCS
METAR KTCS 292053Z AUTO 10SM CLR 28/M13 A3013 RMK AO2 SLP129
T02781128 58025 TSNO





000
SAUS45 KABQ 292052
MTRABQ
METAR KABQ 292052Z 15006KT 10SM BKN230 24/M07 A3018 RMK AO2 SLP160
T02441067 58025





000
SAUS45 KABQ 292052
MTRABQ
METAR KABQ 292052Z 15006KT 10SM BKN230 24/M07 A3018 RMK AO2 SLP160
T02441067 58025





000
SAUS45 KABQ 291954
MTRTCS
METAR KTCS 291953Z AUTO 24007KT 10SM CLR 27/M12 A3016 RMK AO2 SLP134
T02721122 TSNO





000
SAUS45 KABQ 291954
MTRCQC
METAR KCQC 291953Z AUTO 00000KT 10SM CLR 21/M12 A3028 RMK AO2 SLP181
T02111122





000
SAUS45 KABQ 291954
MTRTCS
METAR KTCS 291953Z AUTO 24007KT 10SM CLR 27/M12 A3016 RMK AO2 SLP134
T02721122 TSNO





000
SAUS45 KABQ 291952
MTRABQ
METAR KABQ 291952Z 31004KT 10SM BKN240 24/M07 A3021 RMK AO2 SLP161
T02391067





000
SAUS45 KABQ 291854
MTRTCS
METAR KTCS 291853Z AUTO VRB03G15KT 10SM CLR 27/M13 A3019 RMK AO2
SLP144 T02671128 TSNO





000
SAUS45 KABQ 291854
MTRCQC
METAR KCQC 291853Z AUTO VRB05KT 10SM CLR 21/M11 A3030 RMK AO2 SLP186
T02111111





000
SAUS45 KABQ 291854
MTRTCS
METAR KTCS 291853Z AUTO VRB03G15KT 10SM CLR 27/M13 A3019 RMK AO2
SLP144 T02671128 TSNO





000
SAUS45 KABQ 291854
MTRCQC
METAR KCQC 291853Z AUTO VRB05KT 10SM CLR 21/M11 A3030 RMK AO2 SLP186
T02111111





000
SAUS45 KABQ 291852
MTRABQ
METAR KABQ 291852Z 24007KT 10SM BKN240 23/M06 A3024 RMK AO2 SLP177
T02281061





000
SAUS45 KABQ 291852
MTRABQ
METAR KABQ 291852Z 24007KT 10SM BKN240 23/M06 A3024 RMK AO2 SLP177
T02281061





000
SAUS45 KABQ 291755
MTRCQC
METAR KCQC 291753Z AUTO 36010G18KT 10SM CLR 20/M09 A3031 RMK AO2
SLP190 T02001089 10211 20039 51010





000
SAUS45 KABQ 291755
MTRCQC
METAR KCQC 291753Z AUTO 36010G18KT 10SM CLR 20/M09 A3031 RMK AO2
SLP190 T02001089 10211 20039 51010





000
SAUS45 KABQ 291754
MTRTCS
METAR KTCS 291753Z AUTO VRB04KT 10SM CLR 26/M11 A3022 RMK AO2 SLP153
T02561106 10261 20128 58006 TSNO





000
SAUS45 KABQ 291754
MTRTCS
METAR KTCS 291753Z AUTO VRB04KT 10SM CLR 26/M11 A3022 RMK AO2 SLP153
T02561106 10261 20128 58006 TSNO





000
SAUS45 KABQ 291753
MTRABQ
METAR KABQ 291752Z 00000KT 10SM BKN240 21/M07 A3026 RMK AO2 SLP180
T02061072 10206 20083 50001





000
SAUS45 KABQ 291753
MTRABQ
METAR KABQ 291752Z 00000KT 10SM BKN240 21/M07 A3026 RMK AO2 SLP180
T02061072 10206 20083 50001





000
SAUS45 KABQ 291654
MTRTCS
METAR KTCS 291653Z AUTO VRB03KT 10SM CLR 23/M09 A3023 RMK AO2 SLP164
T02331094 TSNO





000
SAUS45 KABQ 291654
MTRCQC
METAR KCQC 291653Z AUTO 33009G19KT 10SM CLR 19/M09 A3031 RMK AO2
SLP189 T01941089





000
SAUS45 KABQ 291653
MTRABQ
METAR KABQ 291652Z 24005KT 10SM BKN200 19/M08 A3028 RMK AO2 SLP188
T01891078





000
SAUS45 KABQ 291554
MTRTCS
METAR KTCS 291553Z AUTO VRB03KT 10SM CLR 21/M09 A3024 RMK AO2 SLP166
T02061089 TSNO





000
SAUS45 KABQ 291554
MTRCQC
METAR KCQC 291553Z AUTO 31010KT 10SM CLR 17/M09 A3030 RMK AO2 SLP189
T01671094





000
SAUS45 KABQ 291554
MTRCQC
METAR KCQC 291553Z AUTO 31010KT 10SM CLR 17/M09 A3030 RMK AO2 SLP189
T01671094





000
SAUS45 KABQ 291553
MTRABQ
METAR KABQ 291552Z 22006KT 10SM SCT200 16/M07 A3027 RMK AO2 SLP188
T01611067





000
SAUS45 KABQ 291553
MTRABQ
METAR KABQ 291552Z 22006KT 10SM SCT200 16/M07 A3027 RMK AO2 SLP188
T01611067





000
SAUS45 KABQ 291454
MTRCQC
METAR KCQC 291453Z AUTO 31012KT 10SM CLR 14/M09 A3027 RMK AO2 SLP188
T01391089 51015





000
SAUS45 KABQ 291454
MTRTCS
METAR KTCS 291453Z AUTO 31008KT 10SM CLR 18/M14 A3024 RMK AO2 SLP169
T01831139 51020 TSNO





000
SAUS45 KABQ 291453
MTRABQ
METAR KABQ 291452Z 15004KT 10SM FEW180 14/M08 A3026 RMK AO2 SLP186
T01391078 51014





000
SAUS45 KABQ 291453
MTRABQ
METAR KABQ 291452Z 15004KT 10SM FEW180 14/M08 A3026 RMK AO2 SLP186
T01391078 51014





000
SAUS45 KABQ 291354
MTRCQC
METAR KCQC 291353Z AUTO 30008KT 10SM CLR 08/M08 A3026 RMK AO2 SLP187
T00831078





000
SAUS45 KABQ 291354
MTRTCS
METAR KTCS 291353Z AUTO 31008KT 10SM CLR 14/M14 A3022 RMK AO2 SLP167
T01391144 TSNO





000
SAUS45 KABQ 291354
MTRTCS
METAR KTCS 291353Z AUTO 31008KT 10SM CLR 14/M14 A3022 RMK AO2 SLP167
T01391144 TSNO





000
SAUS45 KABQ 291354
MTRCQC
METAR KCQC 291353Z AUTO 30008KT 10SM CLR 08/M08 A3026 RMK AO2 SLP187
T00831078





000
SAUS45 KABQ 291352
MTRABQ
METAR KABQ 291352Z 15003KT 10SM FEW150 11/M09 A3025 RMK AO2 SLP186
T01061089





000
SAUS45 KABQ 291255
MTRTCS
METAR KTCS 291253Z AUTO 31012KT 10SM CLR 14/M16 A3019 RMK AO2 SLP149
T01441161 TSNO





000
SAUS45 KABQ 291255
MTRTCS
METAR KTCS 291253Z AUTO 31012KT 10SM CLR 14/M16 A3019 RMK AO2 SLP149
T01441161 TSNO





000
SAUS45 KABQ 291254
MTRCQC
METAR KCQC 291253Z AUTO 31013KT 10SM CLR 04/M09 A3024 RMK AO2 SLP175
T00441094





000
SAUS45 KABQ 291254
MTRCQC
METAR KCQC 291253Z AUTO 31013KT 10SM CLR 04/M09 A3024 RMK AO2 SLP175
T00441094





000
SAUS45 KABQ 291252
MTRABQ
METAR KABQ 291252Z 14005KT 10SM CLR 09/M10 A3022 RMK AO2 SLP173
T00941100





000
SAUS45 KABQ 291252
MTRABQ
METAR KABQ 291252Z 14005KT 10SM CLR 09/M10 A3022 RMK AO2 SLP173
T00941100





000
SAUS45 KABQ 291154
MTRCQC
METAR KCQC 291153Z AUTO 29012KT 10SM CLR 04/M09 A3022 RMK AO2 SLP163
T00441094 10094 20044 53007





000
SAUS45 KABQ 291154
MTRTCS
METAR KTCS 291153Z AUTO 31009KT 10SM CLR 13/M16 A3017 RMK AO2 SLP142
T01331161 10194 20133 53005 TSNO





000
SAUS45 KABQ 291154
MTRCQC
METAR KCQC 291153Z AUTO 29012KT 10SM CLR 04/M09 A3022 RMK AO2 SLP163
T00441094 10094 20044 53007





000
SAUS45 KABQ 291154
MTRTCS
METAR KTCS 291153Z AUTO 31009KT 10SM CLR 13/M16 A3017 RMK AO2 SLP142
T01331161 10194 20133 53005 TSNO





000
SAUS45 KABQ 291153
MTRABQ
METAR KABQ 291152Z 12006KT 10SM CLR 08/M10 A3020 RMK AO2 SLP169
T00781100 10178 20078 53008





000
SAUS45 KABQ 291153
MTRABQ
METAR KABQ 291152Z 12006KT 10SM CLR 08/M10 A3020 RMK AO2 SLP169
T00781100 10178 20078 53008





000
SAUS45 KABQ 291054
MTRCQC
METAR KCQC 291053Z AUTO 28016KT 10SM CLR 07/M09 A3020 RMK AO2 SLP148
T00721094





000
SAUS45 KABQ 291054
MTRTCS
METAR KTCS 291053Z AUTO 32011KT 10SM CLR 15/M16 A3016 RMK AO2 SLP136
T01501161 TSNO





000
SAUS45 KABQ 291053
MTRABQ
METAR KABQ 291052Z 14007KT 10SM CLR 09/M10 A3019 RMK AO2 SLP160
T00891100





000
SAUS45 KABQ 290955
MTRTCS
METAR KTCS 290953Z AUTO 31009KT 10SM CLR 15/M16 A3015 RMK AO2 SLP134
T01501161 TSNO





000
SAUS45 KABQ 290954
MTRCQC
METAR KCQC 290953Z AUTO 26017KT 10SM CLR 09/M09 A3019 RMK AO2 SLP141
T00891089





000
SAUS45 KABQ 290954
MTRCQC
METAR KCQC 290953Z AUTO 26017KT 10SM CLR 09/M09 A3019 RMK AO2 SLP141
T00891089





000
SAUS45 KABQ 290953
MTRABQ
METAR KABQ 290952Z 12006KT 10SM CLR 10/M10 A3017 RMK AO2 SLP153
T01001100





000
SAUS45 KABQ 290855 COR
MTRCQC
METAR KCQC 290853Z AUTO 30013KT 10SM CLR 07/M08 A3019 RMK AO2 SLP146
T00721083 56003





000
SAUS45 KABQ 290855 COR
MTRCQC
METAR KCQC 290853Z AUTO 30013KT 10SM CLR 07/M08 A3019 RMK AO2 SLP146
T00721083 56003





000
SAUS45 KABQ 290854
MTRTCS
METAR KTCS 290853Z AUTO 36005KT 10SM CLR 14/M16 A3015 RMK AO2 SLP135
T01441156 51005 TSNO





000
SAUS45 KABQ 290853
MTRCQC
METAR KCQC 290853Z AUTO 30013KT 10SM CLR 07/M08 A3019 RMK AO2 SLP146
T00721083 56003





000
SAUS45 KABQ 290853
MTRCQC
METAR KCQC 290853Z AUTO 30013KT 10SM CLR 07/M08 A3019 RMK AO2 SLP146
T00721083 56003





000
SAUS45 KABQ 290852
MTRABQ
METAR KABQ 290852Z 12008KT 10SM CLR 09/M09 A3018 RMK AO2 SLP159
T00891094 53007





000
SAUS45 KABQ 290755
MTRTCS
METAR KTCS 290753Z AUTO 32008KT 10SM CLR 18/M17 A3015 RMK AO2 SLP132
T01781167 TSNO





000
SAUS45 KABQ 290755
MTRTCS
METAR KTCS 290753Z AUTO 32008KT 10SM CLR 18/M17 A3015 RMK AO2 SLP132
T01781167 TSNO





000
SAUS45 KABQ 290754
MTRCQC
METAR KCQC 290753Z AUTO 31009KT 10SM CLR 06/M09 A3019 RMK AO2 SLP152
T00611094





000
SAUS45 KABQ 290754
MTRCQC
METAR KCQC 290753Z AUTO 31009KT 10SM CLR 06/M09 A3019 RMK AO2 SLP152
T00611094





000
SAUS45 KABQ 290752
MTRABQ
METAR KABQ 290752Z 22009KT 10SM CLR 15/M10 A3017 RMK AO2 SLP148
T01501100





000
SAUS45 KABQ 290752
MTRABQ
METAR KABQ 290752Z 22009KT 10SM CLR 15/M10 A3017 RMK AO2 SLP148
T01501100





000
SAUS45 KABQ 290655
MTRTCS
METAR KTCS 290653Z AUTO 32009KT 10SM CLR 19/M17 A3014 RMK AO2 SLP125
T01891167 403000111 TSNO





000
SAUS45 KABQ 290655
MTRTCS
METAR KTCS 290653Z AUTO 32009KT 10SM CLR 19/M17 A3014 RMK AO2 SLP125
T01891167 403000111 TSNO





000
SAUS45 KABQ 290654
MTRCQC
METAR KCQC 290653Z AUTO 29010KT 10SM CLR 08/M09 A3020 RMK AO2 SLP151
T00831094 402220028





000
SAUS45 KABQ 290654
MTRCQC
METAR KCQC 290653Z AUTO 29010KT 10SM CLR 08/M09 A3020 RMK AO2 SLP151
T00831094 402220028





000
SAUS45 KABQ 290652
MTRABQ
METAR KABQ 290652Z 12004KT 10SM CLR 13/M09 A3015 RMK AO2 SLP148
T01281094 402720067





000
SAUS45 KABQ 290652
MTRABQ
METAR KABQ 290652Z 12004KT 10SM CLR 13/M09 A3015 RMK AO2 SLP148
T01281094 402720067





000
SAUS45 KABQ 290554
MTRCQC
METAR KCQC 290553Z AUTO 26011KT 10SM CLR 08/M09 A3020 RMK AO2 SLP155
T00831094 10217 20078 51006





000
SAUS45 KABQ 290554
MTRTCS
METAR KTCS 290553Z AUTO 31009KT 10SM CLR 19/M16 A3013 RMK AO2 SLP127
T01941161 10289 20183 51012 TSNO





000
SAUS45 KABQ 290554
MTRCQC
METAR KCQC 290553Z AUTO 26011KT 10SM CLR 08/M09 A3020 RMK AO2 SLP155
T00831094 10217 20078 51006





000
SAUS45 KABQ 290554
MTRTCS
METAR KTCS 290553Z AUTO 31009KT 10SM CLR 19/M16 A3013 RMK AO2 SLP127
T01941161 10289 20183 51012 TSNO





000
SAUS45 KABQ 290552
MTRABQ
METAR KABQ 290552Z 36006KT 10SM CLR 18/M11 A3015 RMK AO2 SLP141
T01781106 10267 20150 51012





000
SAUS45 KABQ 290552
MTRABQ
METAR KABQ 290552Z 36006KT 10SM CLR 18/M11 A3015 RMK AO2 SLP141
T01781106 10267 20150 51012





000
SAUS45 KABQ 290455
MTRCQC
METAR KCQC 290453Z AUTO 27011KT 10SM CLR 09/M09 A3020 RMK AO2 SLP153
T00941094





000
SAUS45 KABQ 290455
MTRCQC
METAR KCQC 290453Z AUTO 27011KT 10SM CLR 09/M09 A3020 RMK AO2 SLP153
T00941094





000
SAUS45 KABQ 290454
MTRTCS
METAR KTCS 290453Z AUTO 30005KT 10SM CLR 19/M16 A3012 RMK AO2 SLP129
T01891156 TSNO





000
SAUS45 KABQ 290454
MTRTCS
METAR KTCS 290453Z AUTO 30005KT 10SM CLR 19/M16 A3012 RMK AO2 SLP129
T01891156 TSNO





000
SAUS45 KABQ 290452
MTRABQ
METAR KABQ 290452Z 30007KT 10SM CLR 18/M12 A3014 RMK AO2 SLP142
T01831117





000
SAUS45 KABQ 290452
MTRABQ
METAR KABQ 290452Z 30007KT 10SM CLR 18/M12 A3014 RMK AO2 SLP142
T01831117





000
SAUS45 KABQ 290355
MTRTCS
METAR KTCS 290353Z AUTO VRB06KT 10SM CLR 21/M15 A3011 RMK AO2 SLP124
T02111150 TSNO





000
SAUS45 KABQ 290355
MTRTCS
METAR KTCS 290353Z AUTO VRB06KT 10SM CLR 21/M15 A3011 RMK AO2 SLP124
T02111150 TSNO





000
SAUS45 KABQ 290354
MTRCQC
METAR KCQC 290353Z AUTO 26010KT 10SM CLR 11/M09 A3019 RMK AO2 SLP152
T01111094





000
SAUS45 KABQ 290354
MTRCQC
METAR KCQC 290353Z AUTO 26010KT 10SM CLR 11/M09 A3019 RMK AO2 SLP152
T01111094





000
SAUS45 KABQ 290352
MTRABQ
METAR KABQ 290352Z 28007KT 10SM CLR 19/M13 A3013 RMK AO2 SLP144
T01891128





000
SAUS45 KABQ 290352
MTRABQ
METAR KABQ 290352Z 28007KT 10SM CLR 19/M13 A3013 RMK AO2 SLP144
T01891128





000
SAUS45 KABQ 290254
MTRCQC
METAR KCQC 290253Z AUTO 27011KT 10SM CLR 11/M09 A3018 RMK AO2 SLP156
T01061089 53006





000
SAUS45 KABQ 290254
MTRTCS
METAR KTCS 290253Z AUTO 01003KT 10SM CLR 22/M14 A3009 RMK AO2 SLP120
T02221139 53014 TSNO





000
SAUS45 KABQ 290254
MTRCQC
METAR KCQC 290253Z AUTO 27011KT 10SM CLR 11/M09 A3018 RMK AO2 SLP156
T01061089 53006





000
SAUS45 KABQ 290254
MTRTCS
METAR KTCS 290253Z AUTO 01003KT 10SM CLR 22/M14 A3009 RMK AO2 SLP120
T02221139 53014 TSNO





000
SAUS45 KABQ 290252
MTRABQ
METAR KABQ 290252Z 00000KT 10SM CLR 20/M12 A3011 RMK AO2 SLP139
T02001117 53011





000
SAUS45 KABQ 290154
MTRTCS
METAR KTCS 290153Z AUTO 35005KT 10SM CLR 25/M12 A3006 RMK AO2 SLP111
T02501117 TSNO





000
SAUS45 KABQ 290154
MTRTCS
METAR KTCS 290153Z AUTO 35005KT 10SM CLR 25/M12 A3006 RMK AO2 SLP111
T02501117 TSNO





000
SAUS45 KABQ 290154
MTRCQC
METAR KCQC 290153Z AUTO 27009KT 10SM CLR 13/M09 A3017 RMK AO2 SLP155
T01331094





000
SAUS45 KABQ 290154
MTRCQC
METAR KCQC 290153Z AUTO 27009KT 10SM CLR 13/M09 A3017 RMK AO2 SLP155
T01331094





000
SAUS45 KABQ 290153
MTRABQ
METAR KABQ 290152Z 28009KT 10SM CLR 23/M12 A3008 RMK AO2 SLP128
T02281122





000
SAUS45 KABQ 290153
MTRABQ
METAR KABQ 290152Z 28009KT 10SM CLR 23/M12 A3008 RMK AO2 SLP128
T02281122





000
SAUS45 KABQ 290054
MTRTCS
METAR KTCS 290053Z AUTO 20006KT 10SM CLR 28/M12 A3005 RMK AO2 SLP105
T02781117 TSNO





000
SAUS45 KABQ 290054
MTRCQC
METAR KCQC 290053Z AUTO 27014KT 10SM CLR 19/M10 A3016 RMK AO2 SLP151
T01941100





000
SAUS45 KABQ 290054
MTRTCS
METAR KTCS 290053Z AUTO 20006KT 10SM CLR 28/M12 A3005 RMK AO2 SLP105
T02781117 TSNO





000
SAUS45 KABQ 290054
MTRCQC
METAR KCQC 290053Z AUTO 27014KT 10SM CLR 19/M10 A3016 RMK AO2 SLP151
T01941100





000
SAUS45 KABQ 290053
MTRABQ
METAR KABQ 290052Z 28008KT 10SM CLR 26/M10 A3008 RMK AO2 SLP123
T02561100





000
SAUS45 KABQ 290053
MTRABQ
METAR KABQ 290052Z 28008KT 10SM CLR 26/M10 A3008 RMK AO2 SLP123
T02561100





000
SAUS45 KABQ 290003 COR
MTRCQC
METAR KCQC 282353Z AUTO 29013G23KT 10SM CLR 22/M09 A3016 RMK AO2 PK
WND 28030/2303 SLP143 T02171094 10222 20189 56008





000
SAUS45 KABQ 290003 COR
MTRCQC
METAR KCQC 282353Z AUTO 29013G23KT 10SM CLR 22/M09 A3016 RMK AO2 PK
WND 28030/2303 SLP143 T02171094 10222 20189 56008





000
SAUS45 KABQ 290002 COR
MTRCQC
METAR KCQC 282353Z AUTO 29013G23KT 10SM CLR 22/M09 A3016 RMK AO2 PK
WND 28030/2303 SLP143 T02171094 10222 20189 56008





000
SAUS45 KABQ 290002 COR
MTRCQC
METAR KCQC 282353Z AUTO 29013G23KT 10SM CLR 22/M09 A3016 RMK AO2 PK
WND 28030/2303 SLP143 T02171094 10222 20189 56008





000
SAUS45 KABQ 290001 COR
MTRCQC
METAR KCQC 282353Z AUTO 29013G23KT 10SM CLR 22/M09 A3016 RMK AO2 PK
WND 28030/2303 SLP143 T02171094 10222 20189 56008





000
SAUS45 KABQ 290001 COR
MTRCQC
METAR KCQC 282353Z AUTO 29013G23KT 10SM CLR 22/M09 A3016 RMK AO2 PK
WND 28030/2303 SLP143 T02171094 10222 20189 56008





000
SAUS45 KABQ 282359 COR
MTRCQC
METAR KCQC 282353Z AUTO 29013G23KT 10SM CLR 22/M09 A3016 RMK AO2 PK
WND 28030/2303 SLP143 T02171094 10222 20189 56008





000
SAUS45 KABQ 282359 COR
MTRCQC
METAR KCQC 282353Z AUTO 29013G23KT 10SM CLR 22/M09 A3016 RMK AO2 PK
WND 28030/2303 SLP143 T02171094 10222 20189 56008





000
SAUS45 KABQ 282358 COR
MTRCQC
METAR KCQC 282353Z AUTO 29013G23KT 10SM CLR 22/M09 A3016 RMK AO2 PK
WND 28030/2303 SLP143 T02171094 10222 20189 56008





000
SAUS45 KABQ 282358 COR
MTRCQC
METAR KCQC 282353Z AUTO 29013G23KT 10SM CLR 22/M09 A3016 RMK AO2 PK
WND 28030/2303 SLP143 T02171094 10222 20189 56008





000
SAUS45 KABQ 282356 COR
MTRCQC
METAR KCQC 282353Z AUTO 29013G23KT 10SM CLR 22/M09 A3016 RMK AO2 PK
WND 28030/2303 SLP143 T02171094 10222 20189 56008





000
SAUS45 KABQ 282356 COR
MTRCQC
METAR KCQC 282353Z AUTO 29013G23KT 10SM CLR 22/M09 A3016 RMK AO2 PK
WND 28030/2303 SLP143 T02171094 10222 20189 56008





000
SAUS45 KABQ 282355 COR
MTRCQC
METAR KCQC 282353Z AUTO 29013G23KT 10SM CLR 22/M09 A3016 RMK AO2 PK
WND 28030/2303 SLP143 T02171094 10222 20189 56008





000
SAUS45 KABQ 282355 COR
MTRCQC
METAR KCQC 282353Z AUTO 29013G23KT 10SM CLR 22/M09 A3016 RMK AO2 PK
WND 28030/2303 SLP143 T02171094 10222 20189 56008





000
SAUS45 KABQ 282354
MTRTCS
METAR KTCS 282353Z AUTO 17010KT 10SM CLR 29/M12 A3005 RMK AO2 SLP100
T02891117 10300 20244 56016 TSNO





000
SAUS45 KABQ 282354
MTRCQC
METAR KCQC 282353Z AUTO 29013G23KT 10SM CLR 22/M09 A3016 RMK AO2 PK
WND 28030/2303 SLP143 T02171094 10222 20189 56008





000
SAUS45 KABQ 282354
MTRTCS
METAR KTCS 282353Z AUTO 17010KT 10SM CLR 29/M12 A3005 RMK AO2 SLP100
T02891117 10300 20244 56016 TSNO





000
SAUS45 KABQ 282354
MTRCQC
METAR KCQC 282353Z AUTO 29013G23KT 10SM CLR 22/M09 A3016 RMK AO2 PK
WND 28030/2303 SLP143 T02171094 10222 20189 56008





000
SAUS45 KABQ 282353
MTRABQ
METAR KABQ 282352Z 30007KT 10SM CLR 27/M08 A3008 RMK AO2 SLP119
T02671083 10272 20200 56020





000
SAUS45 KABQ 282353
MTRABQ
METAR KABQ 282352Z 30007KT 10SM CLR 27/M08 A3008 RMK AO2 SLP119
T02671083 10272 20200 56020





000
SAUS45 KABQ 282254
MTRCQC
METAR KCQC 282253Z AUTO 31019G26KT 10SM CLR 22/M10 A3016 RMK AO2 PK
WND 30029/2228 SLP143 T02221100





000
SAUS45 KABQ 282254
MTRCQC
METAR KCQC 282253Z AUTO 31019G26KT 10SM CLR 22/M10 A3016 RMK AO2 PK
WND 30029/2228 SLP143 T02221100





000
SAUS45 KABQ 282254
MTRTCS
METAR KTCS 282253Z AUTO 18014KT 10SM CLR 29/M10 A3005 RMK AO2 SLP099
T02941100 TSNO





000
SAUS45 KABQ 282254
MTRTCS
METAR KTCS 282253Z AUTO 18014KT 10SM CLR 29/M10 A3005 RMK AO2 SLP099
T02941100 TSNO





000
SAUS45 KABQ 282253
MTRABQ
METAR KABQ 282252Z 25007KT 220V290 10SM CLR 26/M08 A3008 RMK AO2
SLP128 T02611078





000
SAUS45 KABQ 282253
MTRABQ
METAR KABQ 282252Z 25007KT 220V290 10SM CLR 26/M08 A3008 RMK AO2
SLP128 T02611078





000
SAUS45 KABQ 282154
MTRTCS
METAR KTCS 282153Z AUTO 10SM CLR 29/M13 A3007 RMK AO2 SLP107
T02891133 TSNO





000
SAUS45 KABQ 282154
MTRCQC
METAR KCQC 282153Z AUTO 31020G24KT 10SM CLR 22/M09 A3018 RMK AO2 PK
WND 28032/2057 SLP149 T02171089





000
SAUS45 KABQ 282153
MTRABQ
METAR KABQ 282152Z 29007KT 10SM CLR 26/M07 A3010 RMK AO2 SLP133
T02611072





000
SAUS45 KABQ 282054
MTRCQC
METAR KCQC 282053Z AUTO 30021G28KT 10SM CLR 22/M10 A3019 RMK AO2 PK
WND 30028/2053 SLP146 T02221100 58021





000
SAUS45 KABQ 282054
MTRTCS
METAR KTCS 282053Z AUTO 10SM CLR 28/M13 A3010 RMK AO2 SLP118
T02831128 58030 TSNO





000
SAUS45 KABQ 282052
MTRABQ
METAR KABQ 282052Z 29015G19KT 10SM CLR 25/M07 A3014 RMK AO2 SLP143
T02501067 58029





000
SAUS45 KABQ 282052
MTRABQ
METAR KABQ 282052Z 29015G19KT 10SM CLR 25/M07 A3014 RMK AO2 SLP143
T02501067 58029





000
SAUS45 KABQ 281954
MTRCQC
METAR KCQC 281953Z AUTO 31011G22KT 10SM CLR 22/M09 A3022 RMK AO2
SLP158 T02171094





000
SAUS45 KABQ 281954
MTRTCS
METAR KTCS 281953Z AUTO 20004KT 10SM CLR 27/M08 A3014 RMK AO2 SLP131
T02671083 TSNO





000
SAUS45 KABQ 281952
MTRABQ
METAR KABQ 281952Z 32004KT 10SM CLR 24/M06 A3018 RMK AO2 SLP156
T02391061





000
SAUS45 KABQ 281854
MTRCQC
METAR KCQC 281853Z AUTO 30014KT 10SM CLR 21/M11 A3025 RMK AO2 SLP172
T02061111





000
SAUS45 KABQ 281854
MTRTCS
METAR KTCS 281853Z AUTO 33007KT 280V010 10SM CLR 26/M09 A3017 RMK
AO2 SLP148 T02611094 TSNO





000
SAUS45 KABQ 281854
MTRCQC
METAR KCQC 281853Z AUTO 30014KT 10SM CLR 21/M11 A3025 RMK AO2 SLP172
T02061111





000
SAUS45 KABQ 281854
MTRTCS
METAR KTCS 281853Z AUTO 33007KT 280V010 10SM CLR 26/M09 A3017 RMK
AO2 SLP148 T02611094 TSNO





000
SAUS45 KABQ 281852
MTRABQ
METAR KABQ 281852Z 36003KT 10SM CLR 22/M06 A3022 RMK AO2 SLP168
T02221061





000
SAUS45 KABQ 281852
MTRABQ
METAR KABQ 281852Z 36003KT 10SM CLR 22/M06 A3022 RMK AO2 SLP168
T02221061





000
SAUS45 KABQ 281754
MTRTCS
METAR KTCS 281753Z AUTO 06008KT 10SM CLR 24/M06 A3020 RMK AO2 SLP159
T02441061 10244 20111 58008 TSNO





000
SAUS45 KABQ 281754
MTRCQC
METAR KCQC 281753Z AUTO 31011G18KT 10SM CLR 19/M10 A3027 RMK AO2
SLP178 T01891100 10200 20028 58001





000
SAUS45 KABQ 281754
MTRCQC
METAR KCQC 281753Z AUTO 31011G18KT 10SM CLR 19/M10 A3027 RMK AO2
SLP178 T01891100 10200 20028 58001





000
SAUS45 KABQ 281754
MTRTCS
METAR KTCS 281753Z AUTO 06008KT 10SM CLR 24/M06 A3020 RMK AO2 SLP159
T02441061 10244 20111 58008 TSNO





000
SAUS45 KABQ 281753
MTRABQ
METAR KABQ 281752Z 00000KT 10SM CLR 21/M06 A3025 RMK AO2 SLP179
T02061061 10206 20078 58005





000
SAUS45 KABQ 281753
MTRABQ
METAR KABQ 281752Z 00000KT 10SM CLR 21/M06 A3025 RMK AO2 SLP179
T02061061 10206 20078 58005





000
SAUS45 KABQ 281654
MTRTCS
METAR KTCS 281653Z AUTO 10006KT 10SM CLR 22/M06 A3023 RMK AO2 SLP176
T02171061 TSNO





000
SAUS45 KABQ 281654
MTRCQC
METAR KCQC 281653Z AUTO 33011KT 10SM CLR 18/M08 A3028 RMK AO2 SLP181
T01831083





000
SAUS45 KABQ 281654
MTRCQC
METAR KCQC 281653Z AUTO 33011KT 10SM CLR 18/M08 A3028 RMK AO2 SLP181
T01831083





000
SAUS45 KABQ 281654
MTRTCS
METAR KTCS 281653Z AUTO 10006KT 10SM CLR 22/M06 A3023 RMK AO2 SLP176
T02171061 TSNO





000
SAUS45 KABQ 281653
MTRABQ
METAR KABQ 281652Z 04004KT 10SM CLR 18/M07 A3026 RMK AO2 SLP189
T01781067





000
SAUS45 KABQ 281653
MTRABQ
METAR KABQ 281652Z 04004KT 10SM CLR 18/M07 A3026 RMK AO2 SLP189
T01781067





000
SAUS45 KABQ 281554
MTRCQC
METAR KCQC 281553Z AUTO 31011KT 10SM CLR 17/M06 A3028 RMK AO2 SLP188
T01671061





000
SAUS45 KABQ 281554
MTRTCS
METAR KTCS 281553Z AUTO 11003KT 10SM CLR 19/M09 A3024 RMK AO2 SLP176
T01941089 TSNO





000
SAUS45 KABQ 281553
MTRABQ
METAR KABQ 281552Z 28005KT 10SM CLR 14/M05 A3028 RMK AO2 SLP197
T01391050





000
SAUS45 KABQ 281553
MTRABQ
METAR KABQ 281552Z 28005KT 10SM CLR 14/M05 A3028 RMK AO2 SLP197
T01391050





000
SAUS45 KABQ 281454
MTRTCS
METAR KTCS 281453Z AUTO 03003KT 10SM CLR 18/M09 A3023 RMK AO2 SLP173
T01781089 51016 TSNO





000
SAUS45 KABQ 281454
MTRCQC
METAR KCQC 281453Z AUTO 31009KT 10SM CLR 13/M06 A3027 RMK AO2 SLP191
T01331056 51010





000
SAUS45 KABQ 281454
MTRCQC
METAR KCQC 281453Z AUTO 31009KT 10SM CLR 13/M06 A3027 RMK AO2 SLP191
T01331056 51010





000
SAUS45 KABQ 281454
MTRTCS
METAR KTCS 281453Z AUTO 03003KT 10SM CLR 18/M09 A3023 RMK AO2 SLP173
T01781089 51016 TSNO





000
SAUS45 KABQ 281453
MTRABQ
METAR KABQ 281452Z 27005KT 10SM CLR 12/M06 A3026 RMK AO2 SLP193
T01171061 51015





000
SAUS45 KABQ 281453
MTRABQ
METAR KABQ 281452Z 27005KT 10SM CLR 12/M06 A3026 RMK AO2 SLP193
T01171061 51015





000
SAUS45 KABQ 281354
MTRCQC
METAR KCQC 281353Z AUTO 30009KT 10SM CLR 08/M07 A3026 RMK AO2 SLP190
T00831067





000
SAUS45 KABQ 281354
MTRTCS
METAR KTCS 281353Z AUTO 32006KT 10SM CLR 14/M10 A3022 RMK AO2 SLP173
T01391100 TSNO





000
SAUS45 KABQ 281353
MTRABQ
METAR KABQ 281352Z 06003KT 10SM CLR 11/M06 A3025 RMK AO2 SLP187
T01061061





000
SAUS45 KABQ 281353
MTRABQ
METAR KABQ 281352Z 06003KT 10SM CLR 11/M06 A3025 RMK AO2 SLP187
T01061061





000
SAUS45 KABQ 281255
MTRTCS
METAR KTCS 281253Z AUTO 35008KT 10SM CLR 12/M11 A3020 RMK AO2 SLP163
T01221106 TSNO





000
SAUS45 KABQ 281255
MTRTCS
METAR KTCS 281253Z AUTO 35008KT 10SM CLR 12/M11 A3020 RMK AO2 SLP163
T01221106 TSNO





000
SAUS45 KABQ 281254
MTRCQC
METAR KCQC 281253Z AUTO 30011KT 10SM CLR 04/M08 A3025 RMK AO2 SLP189
T00391083





000
SAUS45 KABQ 281254
MTRCQC
METAR KCQC 281253Z AUTO 30011KT 10SM CLR 04/M08 A3025 RMK AO2 SLP189
T00391083





000
SAUS45 KABQ 281252
MTRABQ
METAR KABQ 281252Z 27006KT 10SM CLR 09/M07 A3024 RMK AO2 SLP183
T00891067





000
SAUS45 KABQ 281252
MTRABQ
METAR KABQ 281252Z 27006KT 10SM CLR 09/M07 A3024 RMK AO2 SLP183
T00891067





000
SAUS45 KABQ 281154
MTRCQC
METAR KCQC 281153Z AUTO 30012KT 10SM CLR 04/M08 A3024 RMK AO2 SLP175
T00441083 10106 20028 53004





000
SAUS45 KABQ 281154
MTRCQC
METAR KCQC 281153Z AUTO 30012KT 10SM CLR 04/M08 A3024 RMK AO2 SLP175
T00441083 10106 20028 53004





000
SAUS45 KABQ 281154
MTRTCS
METAR KTCS 281153Z AUTO 35006KT 10SM CLR 13/M11 A3018 RMK AO2 SLP152
T01281106 10161 20111 55001 TSNO





000
SAUS45 KABQ 281154
MTRTCS
METAR KTCS 281153Z AUTO 35006KT 10SM CLR 13/M11 A3018 RMK AO2 SLP152
T01281106 10161 20111 55001 TSNO





000
SAUS45 KABQ 281152
MTRABQ
METAR KABQ 281152Z 09003KT 10SM CLR 09/M07 A3021 RMK AO2 SLP172
T00941072 10161 20067 53007





000
SAUS45 KABQ 281152
MTRABQ
METAR KABQ 281152Z 09003KT 10SM CLR 09/M07 A3021 RMK AO2 SLP172
T00941072 10161 20067 53007





000
SAUS45 KABQ 281054
MTRCQC
METAR KCQC 281053Z AUTO 30011KT 10SM CLR 04/M08 A3021 RMK AO2 SLP167
T00441083





000
SAUS45 KABQ 281054
MTRTCS
METAR KTCS 281053Z AUTO 32009KT 10SM CLR 13/M11 A3017 RMK AO2 SLP148
T01331111 TSNO





000
SAUS45 KABQ 281054
MTRCQC
METAR KCQC 281053Z AUTO 30011KT 10SM CLR 04/M08 A3021 RMK AO2 SLP167
T00441083





000
SAUS45 KABQ 281054
MTRTCS
METAR KTCS 281053Z AUTO 32009KT 10SM CLR 13/M11 A3017 RMK AO2 SLP148
T01331111 TSNO





000
SAUS45 KABQ 281053
MTRABQ
METAR KABQ 281052Z 15004KT 10SM CLR 07/M07 A3020 RMK AO2 SLP171
T00721072





000
SAUS45 KABQ 281053
MTRABQ
METAR KABQ 281052Z 15004KT 10SM CLR 07/M07 A3020 RMK AO2 SLP171
T00721072





000
SAUS45 KABQ 280954
MTRCQC
METAR KCQC 280953Z AUTO 29009KT 10SM CLR 04/M08 A3021 RMK AO2 SLP163
T00441083





000
SAUS45 KABQ 280954
MTRTCS
METAR KTCS 280953Z AUTO 32011KT 10SM CLR 14/M11 A3017 RMK AO2 SLP145
T01441111 TSNO





000
SAUS45 KABQ 280953
MTRABQ
METAR KABQ 280952Z 11006KT 10SM CLR 08/M07 A3019 RMK AO2 SLP168
T00781072





000
SAUS45 KABQ 280855
MTRTCS
METAR KTCS 280853Z AUTO VRB04KT 10SM CLR 13/M10 A3018 RMK AO2 SLP154
T01331100 53002 TSNO





000
SAUS45 KABQ 280855
MTRTCS
METAR KTCS 280853Z AUTO VRB04KT 10SM CLR 13/M10 A3018 RMK AO2 SLP154
T01331100 53002 TSNO





000
SAUS45 KABQ 280854
MTRCQC
METAR KCQC 280853Z AUTO 26004KT 10SM CLR 07/M09 A3022 RMK AO2 SLP164
T00721094 56008





000
SAUS45 KABQ 280854
MTRCQC
METAR KCQC 280853Z AUTO 26004KT 10SM CLR 07/M09 A3022 RMK AO2 SLP164
T00721094 56008





000
SAUS45 KABQ 280853
MTRABQ
METAR KABQ 280852Z 12003KT 10SM CLR 12/M08 A3019 RMK AO2 SLP164
T01171083 58004





000
SAUS45 KABQ 280853
MTRABQ
METAR KABQ 280852Z 12003KT 10SM CLR 12/M08 A3019 RMK AO2 SLP164
T01171083 58004





000
SAUS45 KABQ 280755
MTRCQC
METAR KCQC 280753Z AUTO 31009KT 10SM CLR 07/M09 A3022 RMK AO2 SLP167
T00721089





000
SAUS45 KABQ 280755
MTRCQC
METAR KCQC 280753Z AUTO 31009KT 10SM CLR 07/M09 A3022 RMK AO2 SLP167
T00721089





000
SAUS45 KABQ 280754
MTRTCS
METAR KTCS 280753Z AUTO 35006KT 10SM CLR 16/M11 A3017 RMK AO2 SLP152
T01561111 TSNO





000
SAUS45 KABQ 280754
MTRTCS
METAR KTCS 280753Z AUTO 35006KT 10SM CLR 16/M11 A3017 RMK AO2 SLP152
T01561111 TSNO





000
SAUS45 KABQ 280752
MTRABQ
METAR KABQ 280752Z 00000KT 10SM CLR 12/M08 A3020 RMK AO2 SLP167
T01221083





000
SAUS45 KABQ 280654
MTRTCS
METAR KTCS 280653Z AUTO 00000KT 10SM CLR 13/M09 A3017 RMK AO2 SLP156
T01331089 402560056 TSNO





000
SAUS45 KABQ 280654
MTRCQC
METAR KCQC 280653Z AUTO 30008KT 10SM CLR 07/M09 A3024 RMK AO2 SLP173
T00721094 402110011





000
SAUS45 KABQ 280653
MTRABQ
METAR KABQ 280652Z 24006KT 10SM CLR 15/M08 A3020 RMK AO2 SLP168
T01501083 402500056





000
SAUS45 KABQ 280554
MTRCQC
METAR KCQC 280553Z AUTO 30008KT 10SM CLR 09/M10 A3025 RMK AO2 SLP177
T00891100 10194 20083 51008





000
SAUS45 KABQ 280554
MTRTCS
METAR KTCS 280553Z AUTO 29010KT 10SM CLR 14/M07 A3017 RMK AO2 SLP159
T01391072 10244 20122 51010 TSNO





000
SAUS45 KABQ 280554
MTRCQC
METAR KCQC 280553Z AUTO 30008KT 10SM CLR 09/M10 A3025 RMK AO2 SLP177
T00891100 10194 20083 51008





000
SAUS45 KABQ 280554
MTRTCS
METAR KTCS 280553Z AUTO 29010KT 10SM CLR 14/M07 A3017 RMK AO2 SLP159
T01391072 10244 20122 51010 TSNO





000
SAUS45 KABQ 280553
MTRABQ
METAR KABQ 280552Z 21005KT 10SM CLR 16/M09 A3020 RMK AO2 SLP170
T01611089 10244 20161 52013





000
SAUS45 KABQ 280553
MTRABQ
METAR KABQ 280552Z 21005KT 10SM CLR 16/M09 A3020 RMK AO2 SLP170
T01611089 10244 20161 52013





000
SAUS45 KABQ 280454
MTRTCS
METAR KTCS 280453Z AUTO 31006KT 10SM CLR 13/M06 A3016 RMK AO2 SLP162
T01281061 TSNO





000
SAUS45 KABQ 280454
MTRTCS
METAR KTCS 280453Z AUTO 31006KT 10SM CLR 13/M06 A3016 RMK AO2 SLP162
T01281061 TSNO





000
SAUS45 KABQ 280454
MTRCQC
METAR KCQC 280453Z AUTO 29008KT 10SM CLR 09/M10 A3024 RMK AO2 SLP177
T00941100





000
SAUS45 KABQ 280454
MTRCQC
METAR KCQC 280453Z AUTO 29008KT 10SM CLR 09/M10 A3024 RMK AO2 SLP177
T00941100





000
SAUS45 KABQ 280452
MTRABQ
METAR KABQ 280452Z 05005KT 10SM CLR 17/M09 A3019 RMK AO2 SLP169
T01671089





000
SAUS45 KABQ 280355
MTRTCS
METAR KTCS 280353Z AUTO 31005KT 10SM CLR 17/M07 A3015 RMK AO2 SLP154
T01671067 TSNO





000
SAUS45 KABQ 280355
MTRTCS
METAR KTCS 280353Z AUTO 31005KT 10SM CLR 17/M07 A3015 RMK AO2 SLP154
T01671067 TSNO





000
SAUS45 KABQ 280354
MTRCQC
METAR KCQC 280353Z AUTO 29011KT 10SM CLR 08/M09 A3024 RMK AO2 SLP187
T00831094





000
SAUS45 KABQ 280354
MTRCQC
METAR KCQC 280353Z AUTO 29011KT 10SM CLR 08/M09 A3024 RMK AO2 SLP187
T00831094





000
SAUS45 KABQ 280352
MTRABQ
METAR KABQ 280352Z 35007KT 10SM CLR 18/M09 A3018 RMK AO2 SLP164
T01781094





000
SAUS45 KABQ 280352
MTRABQ
METAR KABQ 280352Z 35007KT 10SM CLR 18/M09 A3018 RMK AO2 SLP164
T01781094





000
SAUS45 KABQ 280254
MTRCQC
METAR KCQC 280253Z AUTO 28010KT 10SM CLR 09/M09 A3022 RMK AO2 SLP180
T00941094 53010





000
SAUS45 KABQ 280254
MTRTCS
METAR KTCS 280253Z AUTO 06003KT 10SM CLR 18/M07 A3014 RMK AO2 SLP151
T01831067 53007 TSNO





000
SAUS45 KABQ 280254
MTRTCS
METAR KTCS 280253Z AUTO 06003KT 10SM CLR 18/M07 A3014 RMK AO2 SLP151
T01831067 53007 TSNO





000
SAUS45 KABQ 280254
MTRCQC
METAR KCQC 280253Z AUTO 28010KT 10SM CLR 09/M09 A3022 RMK AO2 SLP180
T00941094 53010





000
SAUS45 KABQ 280252
MTRABQ
METAR KABQ 280252Z 33010KT 10SM CLR 20/M11 A3016 RMK AO2 SLP159
T02001106 53008





000
SAUS45 KABQ 280252
MTRABQ
METAR KABQ 280252Z 33010KT 10SM CLR 20/M11 A3016 RMK AO2 SLP159
T02001106 53008





000
SAUS45 KABQ 280154
MTRTCS
METAR KTCS 280153Z AUTO 17004KT 10SM CLR 21/M07 A3012 RMK AO2 SLP150
T02061072 TSNO





000
SAUS45 KABQ 280154
MTRCQC
METAR KCQC 280153Z AUTO 28012KT 10SM CLR 13/M10 A3020 RMK AO2 SLP177
T01331100





000
SAUS45 KABQ 280153
MTRABQ
METAR KABQ 280152Z 33009KT 10SM FEW070 22/M10 A3015 RMK AO2 SLP159
T02171100





000
SAUS45 KABQ 280054
MTRTCS
METAR KTCS 280053Z AUTO 19009KT 10SM CLR 23/M08 A3011 RMK AO2 SLP144
T02331078 TSNO





000
SAUS45 KABQ 280054
MTRCQC
METAR KCQC 280053Z AUTO 30017KT 10SM CLR 17/M10 A3019 RMK AO2 SLP169
T01721100





000
SAUS45 KABQ 280053
MTRABQ
METAR KABQ 280052Z 32010KT 10SM FEW070 23/M11 A3014 RMK AO2 SLP149
T02331106





000
SAUS45 KABQ 272354
MTRCQC
METAR KCQC 272353Z AUTO 30017KT 10SM CLR 19/M11 A3019 RMK AO2 PK WND
27027/2328 SLP162 T01941111 10211 20161 56014





000
SAUS45 KABQ 272354
MTRTCS
METAR KTCS 272353Z AUTO 18011KT 10SM CLR 24/M08 A3011 RMK AO2 SLP136
T02441083 10256 20183 56022 TSNO





000
SAUS45 KABQ 272353
MTRABQ
METAR KABQ 272352Z 32014KT 10SM FEW070 24/M09 A3013 RMK AO2 SLP146
T02441094 10250 20172 56019





    US Dept of Commerce
    National Oceanic and Atmospheric Administration
    National Weather Service
    1325 East West Highway
    Silver Spring, MD 20910
    Page Author: NWS Internet Services Team
Disclaimer
Information Quality
Credits
Glossary
Privacy Policy
Freedom of Information Act (FOIA)
About Us
Career Opportunities